Time;durP1;ratioP1;P1;durP2;ratioP2;P2;SDS_P1;SDS_P2;PMS_P1;PMS_P2;Temp;Humidity;BMP_temperature;BMP_pressure;BME280_temperature;BME280_humidity;BME280_pressure;Samples;Min_cycle;Max_cycle;Signal;HPM_P1;HPM_P2
2022/09/06 00:00:05;;;;;;;18.37;16.40;;;;;;;;;;5098688;28;20939;-74
2022/09/06 00:02:32;;;;;;;17.87;15.53;;;;;;;;;;5097963;28;20450;-74
2022/09/06 00:05:01;;;;;;;16.50;14.90;;;;;;;;;;5099513;28;20508;-74
2022/09/06 00:07:28;;;;;;;19.70;16.00;;;;;;;;;;5101913;28;20450;-74
2022/09/06 00:09:55;;;;;;;16.30;14.80;;;;;;;;;;5102311;28;20790;-74
2022/09/06 00:12:23;;;;;;;17.70;15.90;;;;;;;;;;5100793;28;20548;-74
2022/09/06 00:14:50;;;;;;;18.10;16.40;;;;;;;;;;5101669;28;20475;-74
2022/09/06 00:17:17;;;;;;;18.10;16.30;;;;;;;;;;5101213;28;20457;-74
2022/09/06 00:19:44;;;;;;;28.83;16.00;;;;;;;;;;5100672;28;20478;-74
2022/09/06 00:22:12;;;;;;;19.30;15.80;;;;;;;;;;5100430;28;20451;-74
2022/09/06 00:24:39;;;;;;;18.30;16.27;;;;;;;;;;5101258;28;20481;-74
2022/09/06 00:27:07;;;;;;;19.10;16.00;;;;;;;;;;5101104;28;20955;-74
2022/09/06 00:29:35;;;;;;;17.03;15.33;;;;;;;;;;5100781;28;20450;-74
2022/09/06 00:32:02;;;;;;;18.00;15.47;;;;;;;;;;5100664;28;20450;-74
2022/09/06 00:34:29;;;;;;;18.57;16.63;;;;;;;;;;5101121;28;20478;-74
2022/09/06 00:36:56;;;;;;;25.53;16.90;;;;;;;;;;5100617;28;20438;-74
2022/09/06 00:39:25;;;;;;;17.10;15.43;;;;;;;;;;5100881;28;20911;-74
2022/09/06 00:41:52;;;;;;;17.80;16.10;;;;;;;;;;5100548;28;20554;-74
2022/09/06 00:44:19;;;;;;;17.00;15.27;;;;;;;;;;5100387;28;20478;-74
2022/09/06 00:46:48;;;;;;;18.93;16.93;;;;;;;;;;5100790;28;20825;-74
2022/09/06 00:49:22;;;;;;;22.00;16.73;;;;;;;;;;5100322;28;20449;-74
2022/09/06 00:51:50;;;;;;;19.37;17.37;;;;;;;;;;5101005;28;20470;-74
2022/09/06 00:54:17;;;;;;;18.17;16.47;;;;;;;;;;5100203;28;20470;-74
2022/09/06 00:56:46;;;;;;;19.57;17.57;;;;;;;;;;5101027;28;20450;-74
2022/09/06 00:59:13;;;;;;;18.77;16.80;;;;;;;;;;5100861;28;20450;-74
2022/09/06 01:01:41;;;;;;;19.40;17.50;;;;;;;;;;5097295;28;20446;-76
2022/09/06 01:04:08;;;;;;;19.80;17.20;;;;;;;;;;5095978;28;20477;-74
2022/09/06 01:06:40;;;;;;;21.80;17.77;;;;;;;;;;5101013;28;20592;-74
2022/09/06 01:09:12;;;;;;;19.53;17.53;;;;;;;;;;5100311;28;20927;-74
2022/09/06 01:11:55;;;;;;;18.23;16.40;;;;;;;;;;5100527;28;20439;-74
2022/09/06 01:14:31;;;;;;;20.57;18.43;;;;;;;;;;5099962;28;20466;-74
2022/09/06 01:17:03;;;;;;;22.77;20.47;;;;;;;;;;5099177;28;20800;-74
2022/09/06 01:19:44;;;;;;;20.47;18.30;;;;;;;;;;5099807;28;20436;-74
2022/09/06 01:22:21;;;;;;;19.00;17.10;;;;;;;;;;5099505;28;20450;-74
2022/09/06 01:25:00;;;;;;;21.97;19.87;;;;;;;;;;5100186;28;20471;-74
2022/09/06 01:27:54;;;;;;;21.97;19.67;;;;;;;;;;5100614;28;20441;-74
2022/09/06 01:30:21;;;;;;;21.10;18.90;;;;;;;;;;5100044;28;20904;-74
2022/09/06 01:32:54;;;;;;;23.03;20.73;;;;;;;;;;5098912;28;20447;-74
2022/09/06 01:35:27;;;;;;;22.50;20.13;;;;;;;;;;5098916;28;20465;-74
2022/09/06 01:37:55;;;;;;;21.77;19.47;;;;;;;;;;5098635;28;20881;-74
2022/09/06 01:40:22;;;;;;;24.03;21.50;;;;;;;;;;5099297;28;20806;-74
2022/09/06 01:42:52;;;;;;;24.43;21.10;;;;;;;;;;5099394;28;20454;-74
2022/09/06 01:45:20;;;;;;;21.93;19.73;;;;;;;;;;5098735;28;20470;-74
2022/09/06 01:47:52;;;;;;;27.83;23.27;;;;;;;;;;5099010;28;20457;-74
2022/09/06 01:50:28;;;;;;;24.00;21.57;;;;;;;;;;5100151;28;20423;-74
2022/09/06 01:53:00;;;;;;;24.90;22.27;;;;;;;;;;5099819;28;20442;-74
2022/09/06 01:55:30;;;;;;;23.50;21.00;;;;;;;;;;5099895;28;20463;-74
2022/09/06 01:58:08;;;;;;;25.03;22.50;;;;;;;;;;5101013;28;20775;-74
2022/09/06 02:00:37;;;;;;;22.87;20.63;;;;;;;;;;5101011;28;20431;-74
2022/09/06 02:03:08;;;;;;;27.07;21.53;;;;;;;;;;5101262;28;20458;-74
2022/09/06 02:05:38;;;;;;;23.43;20.93;;;;;;;;;;5098582;28;20485;-74
2022/09/06 02:08:08;;;;;;;26.40;22.67;;;;;;;;;;5097455;28;20457;-74
2022/09/06 02:10:38;;;;;;;30.50;21.93;;;;;;;;;;5098162;28;20446;-73
2022/09/06 02:13:07;;;;;;;24.07;21.47;;;;;;;;;;5097941;28;20451;-73
2022/09/06 02:15:36;;;;;;;24.83;22.23;;;;;;;;;;5097645;28;20449;-73
2022/09/06 02:18:06;;;;;;;25.63;22.07;;;;;;;;;;5099109;28;20450;-73
2022/09/06 02:20:35;;;;;;;25.83;23.23;;;;;;;;;;5098625;28;20959;-73
2022/09/06 02:23:04;;;;;;;26.37;23.57;;;;;;;;;;5098551;28;20459;-74
2022/09/06 02:25:34;;;;;;;28.53;23.30;;;;;;;;;;5098887;28;20462;-74
2022/09/06 02:28:01;;;;;;;26.93;21.60;;;;;;;;;;5099155;28;20958;-74
2022/09/06 02:30:30;;;;;;;23.83;21.20;;;;;;;;;;5098951;28;20940;-74
2022/09/06 02:33:00;;;;;;;30.83;23.80;;;;;;;;;;5098234;28;20481;-74
2022/09/06 02:35:27;;;;;;;25.03;21.77;;;;;;;;;;5097724;28;20466;-73
2022/09/06 02:37:55;;;;;;;29.60;24.33;;;;;;;;;;5098469;28;20446;-73
2022/09/06 02:40:22;;;;;;;28.03;25.13;;;;;;;;;;5097710;28;20466;-73
2022/09/06 02:42:49;;;;;;;27.67;24.77;;;;;;;;;;5097239;28;20465;-73
2022/09/06 02:45:16;;;;;;;28.93;24.60;;;;;;;;;;5097555;28;20471;-73
2022/09/06 02:47:45;;;;;;;29.23;24.40;;;;;;;;;;5096958;28;20502;-73
2022/09/06 02:50:13;;;;;;;26.87;23.97;;;;;;;;;;5096691;28;20796;-73
2022/09/06 02:52:40;;;;;;;30.10;25.90;;;;;;;;;;5096590;28;20480;-73
2022/09/06 02:55:08;;;;;;;28.80;24.00;;;;;;;;;;5097207;28;20466;-73
2022/09/06 02:57:35;;;;;;;27.73;24.13;;;;;;;;;;5096297;28;20822;-74
2022/09/06 03:00:02;;;;;;;28.90;24.33;;;;;;;;;;5096645;28;20442;-74
2022/09/06 03:02:30;;;;;;;29.53;25.23;;;;;;;;;;5096072;28;20471;-73
2022/09/06 03:04:58;;;;;;;28.97;25.83;;;;;;;;;;5096632;28;20474;-74
2022/09/06 03:07:25;;;;;;;26.70;23.90;;;;;;;;;;5096150;28;20479;-74
2022/09/06 03:09:52;;;;;;;31.93;26.03;;;;;;;;;;5095782;28;20442;-73
2022/09/06 03:12:19;;;;;;;31.23;26.63;;;;;;;;;;5095368;28;20447;-73
2022/09/06 03:14:47;;;;;;;38.70;27.00;;;;;;;;;;5095728;28;21004;-73
2022/09/06 03:17:14;;;;;;;35.37;25.80;;;;;;;;;;5096007;28;20451;-73
2022/09/06 03:19:41;;;;;;;30.07;26.87;;;;;;;;;;5096466;28;20438;-73
2022/09/06 03:22:09;;;;;;;36.13;29.60;;;;;;;;;;5097159;28;20450;-73
2022/09/06 03:24:36;;;;;;;33.27;28.80;;;;;;;;;;5096610;28;20844;-73
2022/09/06 03:27:04;;;;;;;30.70;26.57;;;;;;;;;;5096434;28;20521;-73
2022/09/06 03:29:31;;;;;;;34.27;26.50;;;;;;;;;;5097207;28;20442;-73
2022/09/06 03:31:58;;;;;;;34.00;26.33;;;;;;;;;;5096714;28;20461;-73
2022/09/06 03:34:25;;;;;;;30.90;25.43;;;;;;;;;;5096951;28;20482;-73
2022/09/06 03:36:52;;;;;;;32.47;27.97;;;;;;;;;;5096800;28;20442;-74
2022/09/06 03:39:21;;;;;;;33.87;27.67;;;;;;;;;;5096298;28;20438;-74
2022/09/06 03:41:48;;;;;;;32.73;26.37;;;;;;;;;;5100407;28;20462;-73
2022/09/06 03:44:15;;;;;;;32.20;28.30;;;;;;;;;;5100847;28;20475;-73
2022/09/06 03:46:42;;;;;;;34.80;28.70;;;;;;;;;;5101554;28;20482;-74
2022/09/06 03:49:09;;;;;;;32.33;28.67;;;;;;;;;;5102454;28;20457;-74
2022/09/06 03:51:36;;;;;;;31.77;27.27;;;;;;;;;;5103194;28;20788;-74
2022/09/06 03:54:03;;;;;;;36.37;30.17;;;;;;;;;;5102714;28;20471;-74
2022/09/06 03:56:32;;;;;;;32.77;27.93;;;;;;;;;;5102885;28;20489;-74
2022/09/06 03:58:59;;;;;;;34.40;29.80;;;;;;;;;;5102532;28;20457;-74
2022/09/06 04:01:26;;;;;;;34.87;28.87;;;;;;;;;;5102872;28;20481;-74
2022/09/06 04:03:54;;;;;;;36.40;30.43;;;;;;;;;;5102173;28;20478;-74
2022/09/06 04:06:21;;;;;;;33.70;28.70;;;;;;;;;;5101690;28;20487;-74
2022/09/06 04:08:48;;;;;;;43.07;30.17;;;;;;;;;;5102436;28;20803;-74
2022/09/06 04:11:15;;;;;;;40.07;30.27;;;;;;;;;;5101940;28;20455;-74
2022/09/06 04:13:43;;;;;;;31.50;27.60;;;;;;;;;;5102087;28;20462;-73
2022/09/06 04:16:11;;;;;;;38.27;30.03;;;;;;;;;;5101417;28;20457;-74
2022/09/06 04:18:38;;;;;;;35.37;29.70;;;;;;;;;;5101205;28;20948;-73
2022/09/06 04:21:05;;;;;;;37.20;29.47;;;;;;;;;;5101542;28;20454;-73
2022/09/06 04:23:32;;;;;;;33.00;29.43;;;;;;;;;;5101309;28;20479;-74
2022/09/06 04:25:59;;;;;;;35.70;28.73;;;;;;;;;;5101606;28;20528;-74
2022/09/06 04:28:27;;;;;;;31.50;27.57;;;;;;;;;;5101600;28;20448;-74
2022/09/06 04:30:56;;;;;;;34.57;28.70;;;;;;;;;;5100665;28;20446;-74
2022/09/06 04:33:24;;;;;;;32.70;28.67;;;;;;;;;;5100433;28;20450;-74
2022/09/06 04:35:52;;;;;;;32.03;26.70;;;;;;;;;;5101549;28;20458;-74
2022/09/06 04:38:19;;;;;;;37.20;31.27;;;;;;;;;;5101479;28;20434;-74
2022/09/06 04:40:46;;;;;;;37.73;29.20;;;;;;;;;;5101093;28;20453;-74
2022/09/06 04:43:13;;;;;;;40.37;32.47;;;;;;;;;;5101262;28;20442;-74
2022/09/06 04:45:40;;;;;;;40.10;31.93;;;;;;;;;;5101463;28;20457;-74
2022/09/06 04:48:09;;;;;;;34.57;30.87;;;;;;;;;;5101240;28;20486;-74
2022/09/06 04:50:36;;;;;;;37.30;29.33;;;;;;;;;;5101186;28;20450;-74
2022/09/06 04:53:03;;;;;;;39.97;30.97;;;;;;;;;;5100745;28;20446;-74
2022/09/06 04:55:30;;;;;;;33.30;28.80;;;;;;;;;;5101650;28;20962;-74
2022/09/06 04:57:58;;;;;;;38.27;28.50;;;;;;;;;;5101724;28;20456;-74
2022/09/06 05:00:26;;;;;;;33.87;27.40;;;;;;;;;;5101190;28;20451;-74
2022/09/06 05:02:53;;;;;;;50.00;36.10;;;;;;;;;;5100959;28;20463;-74
2022/09/06 05:05:21;;;;;;;36.93;29.10;;;;;;;;;;5100686;28;20539;-74
2022/09/06 05:07:48;;;;;;;27.00;23.77;;;;;;;;;;5101393;28;20550;-74
2022/09/06 05:10:15;;;;;;;26.53;23.90;;;;;;;;;;5101202;28;20435;-74
2022/09/06 05:12:43;;;;;;;24.43;21.93;;;;;;;;;;5101142;28;20454;-74
2022/09/06 05:15:10;;;;;;;24.40;21.80;;;;;;;;;;5100905;28;20475;-74
2022/09/06 05:17:37;;;;;;;23.60;21.03;;;;;;;;;;5100477;28;20450;-74
2022/09/06 05:20:04;;;;;;;23.23;20.93;;;;;;;;;;5102010;28;20458;-74
2022/09/06 05:22:33;;;;;;;20.37;18.30;;;;;;;;;;5100516;28;20450;-74
2022/09/06 05:25:00;;;;;;;21.23;19.20;;;;;;;;;;5101144;28;20471;-74
2022/09/06 05:27:27;;;;;;;19.70;17.67;;;;;;;;;;5099408;28;20492;-74
2022/09/06 05:29:54;;;;;;;18.70;16.87;;;;;;;;;;5098737;28;20458;-74
2022/09/06 05:32:21;;;;;;;18.97;17.07;;;;;;;;;;5098731;28;20454;-74
2022/09/06 05:34:48;;;;;;;15.87;14.23;;;;;;;;;;5098694;28;20859;-74
2022/09/06 05:37:15;;;;;;;20.43;16.97;;;;;;;;;;5099258;28;20470;-74
2022/09/06 05:39:44;;;;;;;20.10;18.20;;;;;;;;;;5098680;28;20447;-74
2022/09/06 05:42:11;;;;;;;18.90;16.87;;;;;;;;;;5099178;28;20469;-74
2022/09/06 05:44:38;;;;;;;19.30;17.30;;;;;;;;;;5098788;28;20474;-74
2022/09/06 05:47:06;;;;;;;16.43;14.83;;;;;;;;;;5098739;28;20482;-74
2022/09/06 05:49:33;;;;;;;18.70;16.90;;;;;;;;;;5099039;28;20545;-74
2022/09/06 05:52:00;;;;;;;17.43;15.73;;;;;;;;;;5099093;28;20470;-74
2022/09/06 05:54:27;;;;;;;17.47;15.53;;;;;;;;;;5099175;28;20466;-74
2022/09/06 05:56:56;;;;;;;18.30;16.47;;;;;;;;;;5099583;28;20454;-73
2022/09/06 05:59:23;;;;;;;18.97;16.93;;;;;;;;;;5099509;28;20442;-74
2022/09/06 06:01:51;;;;;;;18.00;15.97;;;;;;;;;;5099289;28;20447;-74
2022/09/06 06:04:18;;;;;;;18.30;16.43;;;;;;;;;;5099132;28;20474;-74
2022/09/06 06:06:47;;;;;;;15.57;14.13;;;;;;;;;;5098794;28;20491;-74
2022/09/06 06:09:14;;;;;;;15.20;13.40;;;;;;;;;;5097581;28;20465;-74
2022/09/06 06:11:42;;;;;;;14.33;13.03;;;;;;;;;;5096327;28;20454;-74
2022/09/06 06:14:10;;;;;;;12.70;11.50;;;;;;;;;;5095925;28;20474;-74
2022/09/06 06:16:37;;;;;;;12.73;11.53;;;;;;;;;;5095936;28;20458;-74
2022/09/06 06:19:04;;;;;;;13.23;11.97;;;;;;;;;;5095938;28;20458;-74
2022/09/06 06:21:33;;;;;;;12.00;10.97;;;;;;;;;;5095830;28;20822;-74
2022/09/06 06:24:01;;;;;;;12.43;11.33;;;;;;;;;;5095382;28;20471;-74
2022/09/06 06:26:30;;;;;;;11.30;10.30;;;;;;;;;;5095686;28;20457;-74
2022/09/06 06:29:00;;;;;;;11.60;10.60;;;;;;;;;;5095947;28;20438;-74
2022/09/06 06:31:29;;;;;;;11.33;10.43;;;;;;;;;;5095903;28;20474;-74
2022/09/06 06:33:57;;;;;;;11.10;10.20;;;;;;;;;;5095357;28;21003;-74
2022/09/06 06:36:24;;;;;;;12.10;10.73;;;;;;;;;;5094988;28;20454;-74
2022/09/06 06:38:52;;;;;;;11.30;10.30;;;;;;;;;;5095630;28;20458;-74
2022/09/06 06:41:22;;;;;;;10.73;9.90;;;;;;;;;;5094194;28;20512;-74
2022/09/06 06:43:51;;;;;;;10.90;10.00;;;;;;;;;;5094863;28;20469;-74
2022/09/06 06:46:19;;;;;;;10.07;9.17;;;;;;;;;;5094891;28;20490;-74
2022/09/06 06:48:47;;;;;;;9.20;8.50;;;;;;;;;;5095038;28;20493;-74
2022/09/06 06:51:15;;;;;;;10.70;9.67;;;;;;;;;;5095209;28;20443;-74
2022/09/06 06:53:42;;;;;;;9.60;8.90;;;;;;;;;;5095252;28;20557;-74
2022/09/06 06:56:16;;;;;;;10.33;9.33;;;;;;;;;;5094813;28;20525;-74
2022/09/06 06:58:44;;;;;;;9.80;9.10;;;;;;;;;;5095271;28;20804;-74
2022/09/06 07:01:12;;;;;;;11.80;9.30;;;;;;;;;;5095113;28;20463;-74
2022/09/06 07:03:39;;;;;;;9.50;8.80;;;;;;;;;;5095006;28;20600;-74
2022/09/06 07:06:08;;;;;;;10.43;9.63;;;;;;;;;;5094914;28;20454;-74
2022/09/06 07:08:36;;;;;;;8.97;8.07;;;;;;;;;;5094375;28;20490;-74
2022/09/06 07:11:04;;;;;;;8.57;7.97;;;;;;;;;;5094935;28;20451;-74
2022/09/06 07:13:32;;;;;;;8.90;8.20;;;;;;;;;;5094656;28;20979;-74
2022/09/06 07:16:13;;;;;;;8.27;7.57;;;;;;;;;;5093840;28;20960;-75
2022/09/06 07:18:41;;;;;;;9.07;8.17;;;;;;;;;;5094370;28;20454;-75
2022/09/06 07:21:14;;;;;;;9.60;8.80;;;;;;;;;;5093874;28;20870;-75
2022/09/06 07:23:41;;;;;;;8.90;8.20;;;;;;;;;;5093765;28;20485;-75
2022/09/06 07:26:08;;;;;;;8.40;7.70;;;;;;;;;;5093698;28;20446;-75
2022/09/06 07:28:35;;;;;;;7.03;6.47;;;;;;;;;;5094231;28;20491;-74
2022/09/06 07:31:02;;;;;;;9.60;6.97;;;;;;;;;;5094106;28;20520;-74
2022/09/06 07:33:29;;;;;;;7.47;6.87;;;;;;;;;;5093963;28;20478;-75
2022/09/06 07:35:57;;;;;;;7.07;6.37;;;;;;;;;;5093899;28;20951;-75
2022/09/06 07:38:25;;;;;;;7.90;6.10;;;;;;;;;;5094071;28;20447;-74
2022/09/06 07:40:56;;;;;;;6.80;6.30;;;;;;;;;;5093777;28;20462;-74
2022/09/06 07:43:23;;;;;;;7.40;5.63;;;;;;;;;;5093674;28;20461;-74
2022/09/06 07:45:57;;;;;;;4.70;4.30;;;;;;;;;;5093570;28;20463;-74
2022/09/06 07:48:25;;;;;;;5.00;4.60;;;;;;;;;;5093630;28;20493;-74
2022/09/06 07:50:52;;;;;;;4.70;4.40;;;;;;;;;;5094039;28;20450;-74
2022/09/06 07:53:19;;;;;;;6.13;5.53;;;;;;;;;;5093498;28;20451;-74
2022/09/06 07:55:47;;;;;;;6.00;5.47;;;;;;;;;;5093672;28;20932;-74
2022/09/06 07:58:14;;;;;;;7.00;5.63;;;;;;;;;;5093554;28;20435;-74
2022/09/06 08:00:42;;;;;;;7.70;6.03;;;;;;;;;;5093718;28;20959;-74
2022/09/06 08:03:09;;;;;;;6.87;5.67;;;;;;;;;;5093702;28;20447;-74
2022/09/06 08:05:36;;;;;;;5.60;5.20;;;;;;;;;;5093877;28;20932;-74
2022/09/06 08:08:03;;;;;;;4.87;4.47;;;;;;;;;;5093583;28;20493;-74
2022/09/06 08:10:30;;;;;;;5.13;4.73;;;;;;;;;;5093937;28;20908;-74
2022/09/06 08:12:59;;;;;;;7.20;6.60;;;;;;;;;;5093645;28;20458;-74
2022/09/06 08:15:28;;;;;;;8.27;5.00;;;;;;;;;;5093894;28;20478;-74
2022/09/06 08:17:56;;;;;;;5.97;5.37;;;;;;;;;;5093613;28;20450;-74
2022/09/06 08:20:23;;;;;;;6.90;6.20;;;;;;;;;;5093450;28;20511;-74
2022/09/06 08:22:50;;;;;;;5.77;5.27;;;;;;;;;;5093246;28;20457;-74
2022/09/06 08:25:17;;;;;;;7.70;7.00;;;;;;;;;;5092852;28;20498;-74
2022/09/06 08:27:44;;;;;;;5.70;5.20;;;;;;;;;;5096638;28;20490;-74
2022/09/06 08:30:13;;;;;;;5.90;4.50;;;;;;;;;;5096889;28;20435;-74
2022/09/06 08:32:41;;;;;;;5.77;5.17;;;;;;;;;;5096765;28;20533;-74
2022/09/06 08:35:09;;;;;;;7.93;5.63;;;;;;;;;;5096725;28;21056;-74
2022/09/06 08:37:36;;;;;;;5.80;5.30;;;;;;;;;;5096631;28;20446;-74
2022/09/06 08:40:03;;;;;;;5.40;5.00;;;;;;;;;;5096995;28;20450;-74
2022/09/06 08:42:31;;;;;;;6.47;5.60;;;;;;;;;;5096490;28;20458;-74
2022/09/06 08:44:59;;;;;;;5.20;4.80;;;;;;;;;;5096633;28;20474;-74
2022/09/06 08:47:27;;;;;;;11.60;4.40;;;;;;;;;;5096644;28;20455;-75
2022/09/06 08:49:56;;;;;;;5.80;4.37;;;;;;;;;;5096794;28;20435;-75
2022/09/06 08:52:45;;;;;;;4.73;4.30;;;;;;;;;;5096775;28;20450;-75
2022/09/06 08:55:24;;;;;;;6.13;5.50;;;;;;;;;;5091978;28;20478;-75
2022/09/06 08:57:57;;;;;;;6.33;5.80;;;;;;;;;;5096886;28;20500;-75
2022/09/06 09:00:24;;;;;;;5.50;4.97;;;;;;;;;;5096543;28;20912;-75
2022/09/06 09:03:00;;;;;;;9.47;4.97;;;;;;;;;;5096518;28;20457;-74
2022/09/06 09:05:28;;;;;;;6.60;5.60;;;;;;;;;;5096062;28;20470;-75
2022/09/06 09:08:08;;;;;;;6.03;4.63;;;;;;;;;;5096499;28;21007;-75
2022/09/06 09:10:40;;;;;;;5.53;5.07;;;;;;;;;;5096571;28;20435;-75
2022/09/06 09:13:09;;;;;;;5.00;4.53;;;;;;;;;;5096650;28;20908;-75
2022/09/06 09:15:37;;;;;;;4.80;4.50;;;;;;;;;;5096877;28;20820;-75
2022/09/06 09:18:05;;;;;;;6.07;5.47;;;;;;;;;;5096362;28;20442;-75
2022/09/06 09:20:32;;;;;;;5.57;4.70;;;;;;;;;;5096343;28;20461;-75
2022/09/06 09:22:59;;;;;;;5.10;4.70;;;;;;;;;;5096531;28;20459;-75
2022/09/06 09:25:27;;;;;;;4.90;4.40;;;;;;;;;;5096009;28;20478;-75
2022/09/06 09:27:57;;;;;;;4.57;4.23;;;;;;;;;;5096640;28;20486;-75
2022/09/06 09:30:24;;;;;;;5.67;3.50;;;;;;;;;;5095796;28;20455;-75
2022/09/06 09:32:51;;;;;;;4.43;3.67;;;;;;;;;;5096059;28;20459;-75
2022/09/06 09:35:22;;;;;;;6.77;4.17;;;;;;;;;;5096248;28;20493;-75
2022/09/06 09:37:56;;;;;;;7.57;6.97;;;;;;;;;;5095839;28;20806;-75
2022/09/06 09:40:29;;;;;;;3.53;2.90;;;;;;;;;;5096401;28;20443;-75
2022/09/06 09:43:08;;;;;;;3.07;2.80;;;;;;;;;;5095883;28;20430;-75
2022/09/06 09:45:35;;;;;;;3.60;2.80;;;;;;;;;;5095918;28;20450;-75
2022/09/06 09:48:16;;;;;;;3.80;2.80;;;;;;;;;;5095663;28;21022;-75
2022/09/06 09:50:45;;;;;;;7.30;3.00;;;;;;;;;;5095755;28;20434;-75
2022/09/06 09:53:14;;;;;;;3.50;2.77;;;;;;;;;;5095457;28;20538;-74
2022/09/06 09:55:42;;;;;;;6.70;2.13;;;;;;;;;;5095294;28;20447;-74
2022/09/06 09:58:17;;;;;;;11.27;3.10;;;;;;;;;;5095321;28;20504;-74
2022/09/06 10:00:45;;;;;;;5.50;2.70;;;;;;;;;;5095129;28;20816;-74
2022/09/06 10:03:13;;;;;;;5.20;2.67;;;;;;;;;;5095044;28;20454;-75
2022/09/06 10:05:41;;;;;;;3.17;2.37;;;;;;;;;;5094839;28;20451;-75
2022/09/06 10:08:11;;;;;;;3.80;3.50;;;;;;;;;;5095089;28;20539;-74
2022/09/06 10:10:41;;;;;;;6.13;3.40;;;;;;;;;;5095136;28;20447;-74
2022/09/06 10:13:09;;;;;;;5.93;2.73;;;;;;;;;;5095094;28;20468;-75
2022/09/06 10:15:37;;;;;;;3.00;2.10;;;;;;;;;;5094960;28;20457;-75
2022/09/06 10:18:04;;;;;;;6.10;3.30;;;;;;;;;;5095375;28;20450;-75
2022/09/06 10:20:34;;;;;;;5.63;2.57;;;;;;;;;;5095340;28;20431;-75
2022/09/06 10:23:03;;;;;;;2.90;2.40;;;;;;;;;;5095497;28;20431;-75
2022/09/06 10:25:40;;;;;;;3.70;2.30;;;;;;;;;;5095492;28;20471;-75
2022/09/06 10:28:27;;;;;;;6.67;2.40;;;;;;;;;;5095096;28;20441;-75
2022/09/06 10:30:59;;;;;;;6.90;2.90;;;;;;;;;;5095181;28;20810;-75
2022/09/06 10:33:31;;;;;;;2.47;2.27;;;;;;;;;;5094676;28;20470;-75
2022/09/06 10:36:00;;;;;;;5.90;2.87;;;;;;;;;;5094847;28;20431;-74
2022/09/06 10:38:40;;;;;;;3.10;2.23;;;;;;;;;;5094917;28;20825;-74
2022/09/06 10:41:28;;;;;;;2.53;2.33;;;;;;;;;;5094981;28;20470;-75
2022/09/06 10:43:59;;;;;;;3.57;2.40;;;;;;;;;;5094853;28;20470;-75
2022/09/06 10:46:27;;;;;;;4.53;2.30;;;;;;;;;;5094994;28;20438;-75
2022/09/06 10:48:55;;;;;;;3.70;2.00;;;;;;;;;;5094379;28;20471;-75
2022/09/06 10:51:28;;;;;;;2.77;2.37;;;;;;;;;;5094784;28;20797;-75
2022/09/06 10:53:57;;;;;;;2.73;2.53;;;;;;;;;;5095049;28;20473;-75
2022/09/06 10:56:29;;;;;;;3.23;2.80;;;;;;;;;;5094484;28;20447;-75
2022/09/06 10:59:00;;;;;;;2.50;2.30;;;;;;;;;;5094734;28;20435;-75
2022/09/06 11:01:31;;;;;;;2.80;2.43;;;;;;;;;;5095449;28;20457;-75
2022/09/06 11:04:00;;;;;;;3.40;2.40;;;;;;;;;;5095261;28;20475;-75
2022/09/06 11:06:29;;;;;;;4.57;2.33;;;;;;;;;;5095290;28;20431;-75
2022/09/06 11:09:00;;;;;;;3.80;2.87;;;;;;;;;;5095077;28;20475;-75
2022/09/06 11:11:34;;;;;;;2.80;2.47;;;;;;;;;;5094615;28;20443;-75
2022/09/06 11:14:03;;;;;;;5.10;2.70;;;;;;;;;;5094698;28;20463;-75
2022/09/06 11:16:31;;;;;;;6.63;2.50;;;;;;;;;;5094478;28;20447;-75
2022/09/06 11:19:01;;;;;;;4.33;2.33;;;;;;;;;;5094878;28;20467;-75
2022/09/06 11:21:47;;;;;;;2.70;2.40;;;;;;;;;;5094523;28;20443;-75
2022/09/06 11:24:15;;;;;;;5.60;3.57;;;;;;;;;;5094590;28;20466;-75
2022/09/06 11:26:56;;;;;;;2.73;2.23;;;;;;;;;;5094277;28;20450;-75
2022/09/06 11:29:24;;;;;;;6.10;2.50;;;;;;;;;;5094535;28;20490;-75
2022/09/06 11:31:55;;;;;;;8.90;2.80;;;;;;;;;;5094627;28;20454;-75
2022/09/06 11:34:23;;;;;;;7.23;2.50;;;;;;;;;;5095071;28;20478;-75
2022/09/06 11:36:52;;;;;;;3.27;1.80;;;;;;;;;;5095820;28;20904;-75
2022/09/06 11:39:27;;;;;;;5.17;2.00;;;;;;;;;;5095155;28;20455;-75
2022/09/06 11:41:55;;;;;;;3.60;1.70;;;;;;;;;;5094519;28;20468;-75
2022/09/06 11:44:41;;;;;;;3.03;1.80;;;;;;;;;;5095204;28;20469;-75
2022/09/06 11:47:10;;;;;;;5.90;2.07;;;;;;;;;;5094708;28;20508;-75
2022/09/06 11:49:40;;;;;;;10.23;2.53;;;;;;;;;;5094464;28;20829;-75
2022/09/06 11:52:25;;;;;;;2.37;2.03;;;;;;;;;;5094873;28;20438;-75
2022/09/06 11:54:53;;;;;;;5.97;2.50;;;;;;;;;;5094707;28;21001;-75
2022/09/06 11:57:25;;;;;;;4.93;2.60;;;;;;;;;;5094961;28;20454;-75
2022/09/06 11:59:56;;;;;;;3.80;2.20;;;;;;;;;;5095562;28;20537;-75
2022/09/06 12:02:31;;;;;;;3.73;2.27;;;;;;;;;;5099127;28;20446;-75
2022/09/06 12:05:18;;;;;;;4.03;2.50;;;;;;;;;;5098938;28;20485;-75
2022/09/06 12:08:04;;;;;;;5.93;2.17;;;;;;;;;;5099397;28;20451;-75
2022/09/06 12:10:49;;;;;;;4.43;2.60;;;;;;;;;;5099174;28;20479;-75
2022/09/06 12:13:35;;;;;;;3.47;2.00;;;;;;;;;;5099037;28;20455;-75
2022/09/06 12:16:03;;;;;;;2.77;2.57;;;;;;;;;;5098802;28;20442;-75
2022/09/06 12:18:49;;;;;;;4.30;2.00;;;;;;;;;;5098108;28;20457;-75
2022/09/06 12:21:31;;;;;;;3.37;1.93;;;;;;;;;;5097875;28;20450;-75
2022/09/06 12:23:58;;;;;;;2.50;2.10;;;;;;;;;;5098528;28;20466;-75
2022/09/06 12:26:40;;;;;;;3.60;2.57;;;;;;;;;;5097947;28;20442;-75
2022/09/06 12:29:10;;;;;;;4.30;2.37;;;;;;;;;;5097601;28;20492;-75
2022/09/06 12:31:39;;;;;;;4.83;2.03;;;;;;;;;;5097007;28;20451;-75
2022/09/06 12:34:09;;;;;;;3.67;2.20;;;;;;;;;;5097843;28;20477;-75
2022/09/06 12:36:36;;;;;;;5.27;3.30;;;;;;;;;;5097699;28;20434;-75
2022/09/06 12:39:04;;;;;;;4.00;2.80;;;;;;;;;;5097346;28;20447;-75
2022/09/06 12:41:32;;;;;;;4.90;2.40;;;;;;;;;;5097242;28;20470;-75
2022/09/06 12:44:01;;;;;;;4.30;2.30;;;;;;;;;;5097226;28;20470;-75
2022/09/06 12:46:30;;;;;;;3.77;2.53;;;;;;;;;;5097439;28;20447;-75
2022/09/06 12:49:02;;;;;;;6.87;3.03;;;;;;;;;;5097255;28;20489;-75
2022/09/06 12:51:29;;;;;;;3.10;2.53;;;;;;;;;;5097312;28;20455;-75
2022/09/06 12:53:58;;;;;;;2.50;1.93;;;;;;;;;;5096980;28;20557;-75
2022/09/06 12:56:26;;;;;;;4.17;1.90;;;;;;;;;;5097471;28;20464;-75
2022/09/06 12:58:53;;;;;;;3.63;2.60;;;;;;;;;;5097033;28;20447;-75
2022/09/06 13:01:23;;;;;;;2.10;1.83;;;;;;;;;;5097192;28;20447;-75
2022/09/06 13:03:56;;;;;;;2.80;2.13;;;;;;;;;;5096864;28;20474;-75
2022/09/06 13:06:25;;;;;;;3.50;2.43;;;;;;;;;;5097174;28;20846;-75
2022/09/06 13:08:54;;;;;;;3.10;2.07;;;;;;;;;;5096601;28;20457;-75
2022/09/06 13:11:24;;;;;;;2.27;2.00;;;;;;;;;;5096507;28;20455;-75
2022/09/06 13:13:52;;;;;;;5.40;2.07;;;;;;;;;;5095838;28;20467;-75
2022/09/06 13:16:21;;;;;;;2.77;2.20;;;;;;;;;;5096474;28;20900;-75
2022/09/06 13:18:48;;;;;;;2.53;1.90;;;;;;;;;;5096669;28;20490;-75
2022/09/06 13:21:24;;;;;;;6.33;2.00;;;;;;;;;;5096989;28;20828;-75
2022/09/06 13:23:53;;;;;;;2.73;1.63;;;;;;;;;;5096522;28;20504;-75
2022/09/06 13:26:33;;;;;;;3.13;2.00;;;;;;;;;;5096117;28;20458;-75
2022/09/06 13:29:09;;;;;;;2.83;2.27;;;;;;;;;;5096200;28;20442;-75
2022/09/06 13:31:36;;;;;;;4.13;2.17;;;;;;;;;;5096167;28;20466;-75
2022/09/06 13:34:04;;;;;;;3.00;2.07;;;;;;;;;;5096287;28;20539;-75
2022/09/06 13:36:33;;;;;;;2.30;1.90;;;;;;;;;;5096236;28;20461;-75
2022/09/06 13:39:03;;;;;;;2.73;2.13;;;;;;;;;;5095591;28;20511;-75
2022/09/06 13:41:36;;;;;;;5.90;2.10;;;;;;;;;;5095997;28;20838;-75
2022/09/06 13:44:04;;;;;;;2.90;1.90;;;;;;;;;;5096244;28;20474;-75
2022/09/06 13:46:32;;;;;;;3.43;2.03;;;;;;;;;;5096143;28;20545;-75
2022/09/06 13:48:59;;;;;;;2.83;2.00;;;;;;;;;;5095965;28;20902;-75
2022/09/06 13:51:26;;;;;;;6.67;2.33;;;;;;;;;;5096132;28;20443;-75
2022/09/06 13:54:05;;;;;;;2.73;2.20;;;;;;;;;;5095734;28;20471;-75
2022/09/06 13:56:32;;;;;;;5.10;2.43;;;;;;;;;;5095836;28;20484;-75
2022/09/06 13:58:59;;;;;;;4.27;2.33;;;;;;;;;;5095931;28;20442;-75
2022/09/06 14:01:26;;;;;;;2.23;1.93;;;;;;;;;;5095775;28;20447;-75
2022/09/06 14:03:53;;;;;;;5.47;2.63;;;;;;;;;;5095488;28;20469;-75
2022/09/06 14:06:20;;;;;;;2.50;1.93;;;;;;;;;;5095836;28;20454;-75
2022/09/06 14:08:48;;;;;;;2.00;1.80;;;;;;;;;;5096223;28;20441;-75
2022/09/06 14:11:16;;;;;;;4.50;3.13;;;;;;;;;;5095348;28;20540;-75
2022/09/06 14:13:43;;;;;;;3.50;1.90;;;;;;;;;;5094856;28;20467;-75
2022/09/06 14:16:10;;;;;;;2.20;1.70;;;;;;;;;;5094379;28;20858;-75
2022/09/06 14:18:38;;;;;;;2.97;1.90;;;;;;;;;;5094001;28;20454;-75
2022/09/06 14:21:06;;;;;;;3.53;2.40;;;;;;;;;;5093208;28;20455;-75
2022/09/06 14:23:33;;;;;;;4.80;2.03;;;;;;;;;;5093798;28;20557;-75
2022/09/06 14:26:01;;;;;;;4.27;2.13;;;;;;;;;;5094227;28;20457;-75
2022/09/06 14:28:31;;;;;;;2.80;2.07;;;;;;;;;;5094433;28;20461;-75
2022/09/06 14:30:58;;;;;;;5.10;2.80;;;;;;;;;;5094745;28;21023;-75
2022/09/06 14:33:25;;;;;;;3.50;2.17;;;;;;;;;;5094511;28;20458;-76
2022/09/06 14:35:52;;;;;;;2.63;2.43;;;;;;;;;;5095575;28;20446;-75
2022/09/06 14:38:19;;;;;;;2.60;2.20;;;;;;;;;;5095508;28;20940;-75
2022/09/06 14:40:46;;;;;;;2.27;1.80;;;;;;;;;;5095144;28;20443;-75
2022/09/06 14:43:14;;;;;;;2.47;1.90;;;;;;;;;;5095243;28;20442;-75